Time;durP1;ratioP1;P1;durP2;ratioP2;P2;SDS_P1;SDS_P2;PMS_P1;PMS_P2;Temp;Humidity;BMP_temperature;BMP_pressure;BME280_temperature;BME280_humidity;BME280_pressure;Samples;Min_cycle;Max_cycle;Signal;HPM_P1;HPM_P2
2022/02/14 00:00:32;;;;;;;14.27;6.20;;;5.10;99.90;;;3.48;95.21;100333.94;4953891;28;20108;-83
2022/02/14 00:03:06;;;;;;;19.08;6.28;;;5.10;99.90;;;3.46;95.54;100340.91;4908742;28;20064;-84
2022/02/14 00:05:33;;;;;;;16.15;6.70;;;5.00;99.90;;;3.40;95.02;100338.44;4931228;28;20099;-83
2022/02/14 00:08:00;;;;;;;16.50;6.18;;;5.00;99.90;;;3.38;95.36;100336.78;4942704;28;20026;-81
2022/02/14 00:10:26;;;;;;;17.08;6.47;;;5.00;99.90;;;3.38;95.56;100326.38;4943226;28;20073;-84
2022/02/14 00:12:59;;;;;;;15.63;6.22;;;4.90;99.90;;;3.42;95.52;100334.06;4895324;28;20052;-85
2022/02/14 00:15:28;;;;;;;14.40;6.35;;;5.00;99.90;;;3.38;95.32;100324.63;4897884;28;20022;-83
2022/02/14 00:17:54;;;;;;;16.08;6.30;;;5.00;99.90;;;3.35;95.47;100327.31;4925421;28;20435;-80
2022/02/14 00:20:29;;;;;;;20.65;7.00;;;5.00;99.90;;;3.37;95.50;100325.53;4905604;28;20140;-83
2022/02/14 00:22:56;;;;;;;23.37;6.90;;;4.90;99.90;;;3.34;95.30;100319.53;4905743;28;20430;-82
2022/02/14 00:25:23;;;;;;;15.95;6.43;;;4.90;99.90;;;3.33;95.58;100333.44;4929298;28;20021;-83
2022/02/14 00:27:58;;;;;;;15.50;6.60;;;4.80;99.90;;;3.24;95.55;100324.94;4893725;28;20029;-81
2022/02/14 00:30:24;;;;;;;15.35;6.80;;;4.80;99.90;;;3.20;95.63;100327.66;4936749;28;20022;-77
2022/02/14 00:32:50;;;;;;;18.52;7.55;;;4.70;99.90;;;3.14;95.87;100318.22;4958581;28;21583;-80
2022/02/14 00:35:23;;;;;;;12.93;6.68;;;4.70;99.90;;;3.11;96.06;100323.50;4939940;28;20018;-81
2022/02/14 00:37:49;;;;;;;19.85;7.50;;;4.60;99.90;;;3.02;95.57;100319.38;4926728;28;20026;-81
2022/02/14 00:40:16;;;;;;;16.75;6.50;;;4.60;99.90;;;2.98;96.18;100319.44;4928631;28;20027;-82
2022/02/14 00:42:41;;;;;;;13.32;6.35;;;4.50;99.90;;;2.94;96.21;100310.88;4967579;28;20021;-79
2022/02/14 00:45:15;;;;;;;16.20;6.90;;;4.50;99.90;;;2.88;96.28;100314.44;4947494;28;20498;-82
2022/02/14 00:47:41;;;;;;;15.63;6.65;;;4.40;99.90;;;2.83;96.23;100313.72;4915499;28;20041;-81
2022/02/14 00:50:08;;;;;;;16.05;7.10;;;4.30;99.90;;;2.74;97.04;100310.44;4936178;28;20030;-81
2022/02/14 00:52:37;;;;;;;19.55;7.20;;;4.30;99.90;;;2.69;97.25;100313.13;4971133;28;20029;-81
2022/02/14 00:55:07;;;;;;;10.32;6.70;;;4.30;99.90;;;2.67;97.42;100312.31;4899590;28;20191;-82
2022/02/14 00:57:33;;;;;;;19.73;7.30;;;4.20;99.90;;;2.65;97.37;100294.13;4953665;28;20091;-81
2022/02/14 00:59:59;;;;;;;15.48;6.80;;;4.20;99.90;;;2.61;97.43;100294.22;4940245;28;20060;-81
2022/02/14 01:02:25;;;;;;;15.40;7.15;;;4.10;99.90;;;2.56;98.07;100290.88;4952443;28;20028;-81
2022/02/14 01:04:56;;;;;;;24.73;7.63;;;4.10;99.90;;;2.53;98.41;100289.22;4925051;28;20044;-81
2022/02/14 01:07:23;;;;;;;14.50;6.63;;;4.10;99.90;;;2.52;98.42;100271.88;4937045;28;20034;-79
2022/02/14 01:09:50;;;;;;;18.50;6.72;;;4.10;99.90;;;2.48;98.60;100275.44;4908647;28;20039;-81
2022/02/14 01:12:16;;;;;;;21.08;7.00;;;4.10;99.90;;;2.51;99.05;100271.94;4938222;28;20033;-82
2022/02/14 01:14:42;;;;;;;19.92;6.95;;;4.10;99.90;;;2.54;98.89;100270.13;4950915;28;20043;-81
2022/02/14 01:17:17;;;;;;;17.83;6.75;;;4.10;99.90;;;2.51;99.31;100259.78;4949525;28;20056;-82
2022/02/14 01:19:44;;;;;;;15.33;6.77;;;4.10;99.90;;;2.57;99.41;100261.38;4956015;28;20051;-80
2022/02/14 01:22:18;;;;;;;17.90;7.03;;;4.10;99.90;;;2.59;99.21;100250.09;4961416;28;20256;-80
2022/02/14 01:24:44;;;;;;;19.10;6.88;;;4.20;99.90;;;2.63;99.00;100243.91;4935812;28;20026;-81
2022/02/14 01:27:10;;;;;;;18.92;6.95;;;4.20;99.90;;;2.70;98.86;100247.25;4923540;28;20041;-80
2022/02/14 01:29:35;;;;;;;17.27;6.45;;;4.20;99.90;;;2.72;99.06;100226.41;4946204;28;20115;-81
2022/02/14 01:32:02;;;;;;;14.73;6.40;;;4.30;99.90;;;2.78;98.69;100231.47;4909514;28;20022;-81
2022/02/14 01:34:36;;;;;;;20.27;6.80;;;4.30;99.90;;;2.85;98.33;100231.31;4894649;28;20061;-82
2022/02/14 01:37:02;;;;;;;10.00;6.00;;;4.40;99.90;;;2.88;98.29;100219.97;4916014;28;20026;-81
2022/02/14 01:39:29;;;;;;;14.18;5.85;;;4.40;99.90;;;2.94;98.11;100219.84;4927050;28;20049;-81
2022/02/14 01:42:04;;;;;;;16.10;6.18;;;4.50;99.90;;;3.01;97.59;100223.16;4915994;28;20026;-81
2022/02/14 01:44:42;;;;;;;14.48;6.60;;;4.50;99.90;;;3.04;97.32;100229.13;4941474;28;20645;-81
2022/02/14 01:47:26;;;;;;;17.52;6.38;;;4.60;99.90;;;3.06;97.17;100219.53;4961327;28;20029;-81
2022/02/14 01:49:53;;;;;;;18.30;6.32;;;4.60;99.90;;;3.10;96.75;100212.53;4934188;28;20016;-81
2022/02/14 01:52:25;;;;;;;20.83;6.25;;;4.60;99.90;;;3.12;96.70;100215.94;4952941;28;20391;-80
2022/02/14 01:54:51;;;;;;;15.48;5.40;;;4.60;99.90;;;3.12;96.45;100215.94;4962240;28;20038;-80
2022/02/14 01:57:19;;;;;;;16.25;5.70;;;4.60;99.90;;;3.17;96.12;100210.63;4955712;28;20105;-81
2022/02/14 01:59:46;;;;;;;15.10;5.82;;;4.70;99.90;;;3.17;96.19;100206.28;4923518;28;20456;-81
2022/02/14 02:02:18;;;;;;;11.48;5.80;;;4.70;99.90;;;3.14;96.25;100193.34;4950948;28;20033;-81
2022/02/14 02:04:45;;;;;;;17.80;6.03;;;4.70;99.90;;;3.14;96.09;100198.56;4931804;28;20052;-81
2022/02/14 02:07:14;;;;;;;14.55;6.50;;;4.70;99.90;;;3.16;96.10;100191.56;4929816;28;20036;-81
2022/02/14 02:09:46;;;;;;;13.27;6.20;;;4.70;99.90;;;3.14;95.83;100192.50;4930343;28;20037;-82
2022/02/14 02:12:26;;;;;;;22.27;5.80;;;4.70;99.90;;;3.15;95.79;100192.44;4962758;28;20030;-81
2022/02/14 02:15:09;;;;;;;21.00;7.05;;;4.70;99.90;;;3.19;95.83;100190.63;4928228;28;20037;-81
2022/02/14 02:17:42;;;;;;;21.13;5.80;;;4.70;99.90;;;3.17;95.54;100187.22;4918832;28;20493;-82
2022/02/14 02:20:14;;;;;;;14.55;5.93;;;4.70;99.90;;;3.15;95.50;100183.78;4926028;28;20050;-83
2022/02/14 02:22:48;;;;;;;12.93;5.68;;;4.70;99.90;;;3.13;95.51;100181.22;4934671;28;20108;-79
2022/02/14 02:25:16;;;;;;;15.20;6.35;;;4.70;99.90;;;3.17;95.46;100175.06;4916092;28;20033;-80
2022/02/14 02:27:43;;;;;;;16.58;6.30;;;4.70;99.90;;;3.20;95.09;100177.59;4921430;28;20026;-79
2022/02/14 02:30:17;;;;;;;12.13;6.05;;;4.70;99.90;;;3.20;95.02;100169.78;4947569;28;20029;-81
2022/02/14 02:32:43;;;;;;;11.27;5.55;;;4.70;99.90;;;3.20;94.88;100172.41;4923556;28;20040;-82
2022/02/14 02:35:10;;;;;;;17.60;6.35;;;4.70;99.90;;;3.20;94.38;100167.19;4953614;28;20037;-81
2022/02/14 02:37:37;;;;;;;15.00;6.55;;;4.70;99.90;;;3.14;94.96;100162.13;4948375;28;20519;-80
2022/02/14 02:40:10;;;;;;;15.30;6.20;;;4.70;99.90;;;3.15;95.10;100153.41;4907890;28;20075;-82
2022/02/14 02:42:36;;;;;;;17.55;6.75;;;4.70;99.90;;;3.09;94.91;100153.59;4948041;28;20037;-80
2022/02/14 02:45:03;;;;;;;12.32;5.82;;;4.70;99.90;;;3.10;94.82;100155.28;4925734;28;20039;-81
2022/02/14 02:47:29;;;;;;;13.55;6.50;;;4.60;99.90;;;3.06;94.67;100146.69;4914090;28;20072;-81
2022/02/14 02:50:03;;;;;;;11.55;5.97;;;4.60;99.90;;;3.04;94.78;100145.03;4944661;28;20033;-81
2022/02/14 02:52:29;;;;;;;19.90;7.32;;;4.60;99.90;;;3.03;95.04;100138.16;4925506;28;20037;-81
2022/02/14 02:54:56;;;;;;;17.60;6.03;;;4.60;99.90;;;3.01;94.85;100139.94;4927606;28;20037;-80
2022/02/14 02:57:31;;;;;;;11.02;5.72;;;4.50;99.90;;;3.00;94.88;100136.47;4944468;28;20045;-81
2022/02/14 02:59:57;;;;;;;12.05;6.60;;;4.50;99.90;;;2.93;94.85;100136.66;4922449;28;20441;-81
2022/02/14 03:02:23;;;;;;;12.63;6.63;;;4.40;99.90;;;2.89;95.13;100125.47;4961640;28;20025;-81
2022/02/14 03:04:49;;;;;;;16.10;6.20;;;4.40;99.90;;;2.88;95.44;100115.97;4932564;28;20518;-83
2022/02/14 03:07:20;;;;;;;11.18;6.28;;;4.40;99.90;;;2.87;95.21;100116.84;4933508;28;20034;-80
2022/02/14 03:09:47;;;;;;;16.92;6.22;;;4.40;99.90;;;2.85;95.38;100109.09;4942834;28;20043;-82
2022/02/14 03:12:12;;;;;;;15.90;6.32;;;4.40;99.90;;;2.81;95.39;100106.63;4906334;28;20030;-81
2022/02/14 03:14:39;;;;;;;15.23;5.93;;;4.40;99.90;;;2.80;95.29;100102.28;4922106;28;20129;-80
2022/02/14 03:17:11;;;;;;;12.57;6.05;;;4.30;99.90;;;2.81;95.67;100106.63;4931428;28;20033;-81
2022/02/14 03:19:39;;;;;;;14.88;6.57;;;4.30;99.90;;;2.78;95.48;100102.31;4929495;28;20316;-81
2022/02/14 03:22:05;;;;;;;15.38;5.90;;;4.30;99.90;;;2.79;95.09;100103.19;4942616;28;20033;-81
2022/02/14 03:24:31;;;;;;;19.63;6.35;;;4.30;99.90;;;2.77;95.12;100092.00;5033606;28;20029;-80
2022/02/14 03:26:57;;;;;;;14.38;6.00;;;4.30;99.90;;;2.81;95.37;100093.63;4953716;28;20037;-81
2022/02/14 03:29:28;;;;;;;14.00;6.22;;;4.30;99.90;;;2.84;95.38;100093.53;4950071;28;20030;-82
2022/02/14 03:31:54;;;;;;;13.40;6.28;;;4.30;99.90;;;2.81;95.12;100085.81;4947383;28;20095;-81
2022/02/14 03:34:20;;;;;;;10.95;5.85;;;4.30;99.90;;;2.80;95.05;100076.28;4933448;28;24403;-81
2022/02/14 03:36:46;;;;;;;13.93;5.75;;;4.30;99.90;;;2.87;94.95;100077.84;4922776;28;20558;-81
2022/02/14 03:39:12;;;;;;;11.13;6.25;;;4.40;99.90;;;2.90;94.50;100079.53;4934687;28;20034;-81
2022/02/14 03:41:45;;;;;;;13.77;5.82;;;4.40;99.90;;;2.88;94.37;100077.81;4920981;28;20033;-81
2022/02/14 03:44:12;;;;;;;10.60;5.15;;;4.40;99.90;;;2.91;94.78;100076.88;4922410;28;20055;-81
2022/02/14 03:46:40;;;;;;;14.27;6.15;;;4.40;99.90;;;2.94;94.23;100079.41;4948549;28;20457;-81
2022/02/14 03:49:07;;;;;;;11.95;5.88;;;4.40;99.90;;;2.92;94.00;100073.41;4936405;28;20096;-81
2022/02/14 03:51:36;;;;;;;15.05;6.43;;;4.40;99.90;;;2.92;94.18;100073.41;4925077;28;20240;-82
2022/02/14 03:54:03;;;;;;;13.32;6.32;;;4.40;99.90;;;2.89;94.00;100063.06;4927360;28;20174;-80
2022/02/14 03:56:29;;;;;;;16.83;6.35;;;4.40;99.90;;;2.88;93.84;100066.56;4933694;28;20401;-80
2022/02/14 03:58:55;;;;;;;13.15;6.00;;;4.50;99.90;;;2.93;93.89;100062.09;4918009;28;20021;-80
2022/02/14 04:01:21;;;;;;;12.43;5.57;;;4.40;99.90;;;2.88;93.53;100062.22;4905492;28;20419;-80
2022/02/14 04:03:56;;;;;;;16.10;6.28;;;4.40;99.90;;;2.91;94.01;100057.81;4926787;28;20029;-81
2022/02/14 04:06:22;;;;;;;16.77;6.13;;;4.40;99.90;;;2.92;93.72;100055.19;4926826;28;20468;-82
2022/02/14 04:08:48;;;;;;;12.52;5.43;;;4.40;99.90;;;2.92;93.49;100050.00;4928959;28;20117;-81
2022/02/14 04:11:22;;;;;;;13.18;5.97;;;4.40;99.90;;;2.92;93.14;100057.78;4929665;28;20109;-80
2022/02/14 04:13:48;;;;;;;14.90;5.57;;;4.40;99.90;;;2.91;93.55;100050.03;4903788;28;20057;-81
2022/02/14 04:16:13;;;;;;;15.05;6.20;;;4.40;99.90;;;2.92;93.51;100038.75;4920581;28;20030;-81
2022/02/14 04:18:40;;;;;;;11.50;5.85;;;4.50;99.90;;;2.94;93.49;100044.72;4936588;28;20040;-81
2022/02/14 04:21:06;;;;;;;14.15;6.35;;;4.40;99.90;;;2.94;93.28;100044.72;4937147;28;20033;-80
2022/02/14 04:23:39;;;;;;;13.30;5.55;;;4.50;99.90;;;2.97;93.10;100044.66;4933018;28;20025;-82
2022/02/14 04:26:05;;;;;;;12.55;5.43;;;4.50;99.90;;;2.97;92.80;100029.91;4933658;28;20095;-81
2022/02/14 04:28:31;;;;;;;16.80;5.80;;;4.50;99.90;;;3.00;92.83;100037.66;4922901;28;20930;-82
2022/02/14 04:30:57;;;;;;;10.52;6.10;;;4.50;99.90;;;3.02;92.66;100032.38;4918782;28;20029;-81
2022/02/14 04:33:30;;;;;;;15.18;6.03;;;4.50;99.90;;;2.99;92.58;100033.31;4939261;28;20057;-81
2022/02/14 04:35:56;;;;;;;14.50;5.97;;;4.60;99.90;;;3.01;92.49;100030.69;4936525;28;20084;-81
2022/02/14 04:38:22;;;;;;;12.70;5.20;;;4.60;99.90;;;3.04;91.88;100026.25;4920929;28;20083;-81
2022/02/14 04:40:48;;;;;;;14.00;6.25;;;4.60;99.90;;;3.09;91.87;100033.94;4953598;28;20021;-80
2022/02/14 04:43:16;;;;;;;11.27;6.03;;;4.60;99.90;;;3.05;91.99;100014.97;4939567;28;20029;-81
2022/02/14 04:45:44;;;;;;;11.32;6.07;;;4.60;99.90;;;3.04;91.82;100033.19;4922253;28;20022;-82
2022/02/14 04:48:10;;;;;;;19.35;6.32;;;4.60;99.90;;;3.03;92.37;100039.31;4929994;28;21359;-82
2022/02/14 04:50:36;;;;;;;13.55;5.60;;;4.60;99.90;;;3.04;92.01;100031.44;4917926;28;20022;-79
2022/02/14 04:53:02;;;;;;;15.35;5.90;;;4.60;99.90;;;3.04;91.89;100031.44;4922479;28;20077;-81
2022/02/14 04:55:30;;;;;;;12.65;5.88;;;4.60;99.90;;;3.04;91.70;100036.63;4928255;28;20027;-80
2022/02/14 04:58:01;;;;;;;12.43;5.60;;;4.60;99.90;;;3.07;91.65;100033.97;4926807;28;20108;-82
2022/02/14 05:00:27;;;;;;;10.82;5.20;;;4.60;99.90;;;3.03;91.58;100031.50;4962579;28;20034;-81
2022/02/14 05:02:53;;;;;;;13.77;5.75;;;4.60;99.90;;;3.10;91.30;100029.59;4924021;28;20027;-81
2022/02/14 05:05:19;;;;;;;14.60;5.45;;;4.60;99.90;;;3.04;91.53;100035.78;4891041;28;20037;-82
2022/02/14 05:07:46;;;;;;;12.73;5.75;;;4.60;99.90;;;3.07;91.28;100031.38;4925844;28;20031;-81
2022/02/14 05:10:17;;;;;;;13.52;5.45;;;4.60;99.90;;;3.06;91.03;100029.66;4904581;28;20555;-81
2022/02/14 05:12:43;;;;;;;11.32;5.55;;;4.60;99.90;;;3.04;90.92;100020.19;4960736;28;20036;-81
2022/02/14 05:15:10;;;;;;;18.63;5.13;;;4.60;99.90;;;3.05;91.17;100014.97;4937785;28;20042;-80
2022/02/14 05:17:37;;;;;;;14.02;4.82;;;4.60;99.90;;;3.06;91.02;100011.44;4922459;28;20021;-80
2022/02/14 05:20:09;;;;;;;11.27;5.05;;;4.60;99.90;;;3.10;90.57;100004.41;5002291;28;20036;-81
2022/02/14 05:22:36;;;;;;;14.25;5.45;;;4.60;99.90;;;3.08;90.51;100016.63;4957568;28;20535;-82
2022/02/14 05:25:03;;;;;;;13.82;5.22;;;4.70;99.90;;;3.14;90.31;100016.44;4916693;28;20025;-80
2022/02/14 05:27:29;;;;;;;12.93;5.38;;;4.60;99.90;;;3.13;90.14;100008.69;4955864;28;20057;-80
2022/02/14 05:30:04;;;;;;;14.32;4.93;;;4.60;99.90;;;3.09;89.93;100018.34;4919232;28;20018;-81
2022/02/14 05:32:29;;;;;;;13.63;5.40;;;4.60;99.90;;;3.11;89.83;100015.66;4989905;28;20036;-80
2022/02/14 05:34:56;;;;;;;19.92;5.82;;;4.60;99.90;;;3.14;89.70;100010.41;4945667;28;20045;-80
2022/02/14 05:37:32;;;;;;;13.63;5.75;;;4.70;99.90;;;3.14;89.63;100008.66;4945989;28;20474;-79
2022/02/14 05:39:58;;;;;;;11.90;4.45;;;4.70;99.90;;;3.15;89.57;100009.50;4927732;28;20093;-81
2022/02/14 05:42:24;;;;;;;15.10;5.50;;;4.70;99.90;;;3.16;89.38;99996.44;4928412;28;20105;-80
2022/02/14 05:44:50;;;;;;;11.95;5.15;;;4.70;99.90;;;3.19;89.02;100001.56;4949340;28;20028;-82
2022/02/14 05:47:25;;;;;;;12.30;4.68;;;4.70;99.90;;;3.16;88.69;100003.41;4914361;28;20060;-84
2022/02/14 05:49:52;;;;;;;11.07;5.38;;;4.70;99.90;;;3.18;89.17;99991.22;4923819;28;20048;-81
2022/02/14 05:52:18;;;;;;;13.10;5.18;;;4.70;99.90;;;3.18;88.98;100002.47;4929978;28;20034;-80
2022/02/14 05:54:53;;;;;;;16.52;5.03;;;4.70;99.90;;;3.16;88.70;100003.41;4913270;28;20123;-82
2022/02/14 05:57:22;;;;;;;8.50;4.20;;;4.70;99.90;;;3.16;88.58;100004.25;4948293;28;20047;-80
2022/02/14 05:59:52;;;;;;;8.25;4.85;;;4.70;99.90;;;3.17;88.57;100005.09;4951326;28;20033;-80
2022/02/14 06:02:18;;;;;;;13.15;4.80;;;4.70;99.90;;;3.19;88.46;100008.53;4939911;28;20489;-81
2022/02/14 06:04:44;;;;;;;12.93;4.47;;;4.80;99.90;;;3.23;88.42;100010.16;4954798;28;20044;-80
2022/02/14 06:07:10;;;;;;;13.52;4.57;;;4.80;99.90;;;3.24;88.08;100009.22;4931407;28;20026;-80
2022/02/14 06:09:36;;;;;;;11.40;4.95;;;4.80;99.90;;;3.26;87.93;100010.91;4955114;28;20033;-81
2022/02/14 06:12:10;;;;;;;11.93;4.25;;;4.80;99.90;;;3.24;87.82;100011.84;4924933;28;20033;-79
2022/02/14 06:14:36;;;;;;;19.42;5.18;;;4.80;99.90;;;3.27;87.54;100011.75;4938210;28;20076;-81
2022/02/14 06:17:03;;;;;;;11.60;4.22;;;4.80;99.90;;;3.29;87.28;100010.81;4945972;28;20057;-78
2022/02/14 06:19:29;;;;;;;13.35;4.10;;;4.80;99.90;;;3.32;87.24;100009.88;4933863;28;20029;-81
2022/02/14 06:22:02;;;;;;;13.23;4.43;;;4.80;99.90;;;3.32;87.19;100012.47;4942483;28;20028;-80
2022/02/14 06:24:28;;;;;;;13.38;4.57;;;4.80;99.90;;;3.34;86.88;100022.84;4929208;28;20041;-82
2022/02/14 06:26:54;;;;;;;11.30;4.22;;;4.80;99.90;;;3.24;87.02;100017.03;4955252;28;20560;-81
2022/02/14 06:29:20;;;;;;;14.63;3.88;;;4.80;99.90;;;3.28;86.86;100018.66;4909235;28;20021;-80
2022/02/14 06:31:46;;;;;;;11.57;4.20;;;4.80;99.90;;;3.28;86.43;100008.25;4927508;28;20030;-79
2022/02/14 06:34:16;;;;;;;10.65;4.38;;;4.80;99.90;;;3.26;86.36;100004.84;4965172;28;20034;-81
2022/02/14 06:36:42;;;;;;;13.27;4.93;;;4.80;99.90;;;3.31;85.92;100010.78;4956070;28;20052;-80
2022/02/14 06:39:09;;;;;;;10.70;4.45;;;4.80;99.90;;;3.34;86.00;100018.50;4910721;28;20479;-81
2022/02/14 06:41:35;;;;;;;10.77;4.13;;;4.80;99.90;;;3.31;85.95;100018.59;4936501;28;20723;-81
2022/02/14 06:44:01;;;;;;;10.73;3.60;;;4.80;99.90;;;3.34;86.06;100021.09;4973021;28;20036;-79
2022/02/14 06:46:36;;;;;;;11.50;4.15;;;4.80;99.90;;;3.40;85.63;100022.69;4917034;28;20038;-78
2022/02/14 06:49:06;;;;;;;13.25;4.07;;;4.80;99.90;;;3.41;85.35;100009.63;4919924;28;22199;-81
2022/02/14 06:51:41;;;;;;;11.68;4.30;;;4.90;99.90;;;3.52;85.39;100011.06;4935533;28;20037;-82
2022/02/14 06:54:07;;;;;;;10.52;4.28;;;4.90;99.90;;;3.57;84.83;100017.00;4936288;28;20537;-80
2022/02/14 06:56:33;;;;;;;13.30;4.38;;;5.00;99.90;;;3.63;84.82;100011.63;4935815;28;20120;-80
2022/02/14 06:59:04;;;;;;;15.15;4.15;;;5.00;99.90;;;3.68;84.22;100014.94;4925021;28;20465;-80
2022/02/14 07:01:30;;;;;;;11.38;3.72;;;5.00;99.90;;;3.78;83.77;100005.94;4926899;28;20145;-80
2022/02/14 07:03:55;;;;;;;9.27;3.63;;;5.10;99.90;;;3.89;83.73;100009.06;4937936;28;20033;-80
2022/02/14 07:06:21;;;;;;;9.95;4.05;;;5.20;99.90;;;4.10;82.84;100020.59;4929341;28;20472;-80
2022/02/14 07:08:48;;;;;;;13.30;3.55;;;5.30;99.90;;;4.28;82.21;100026.13;4928802;28;20092;-81
2022/02/14 07:11:14;;;;;;;12.77;4.47;;;5.40;99.90;;;4.45;81.48;100028.16;4932155;28;20029;-80
2022/02/14 07:13:44;;;;;;;10.63;4.20;;;5.50;99.90;;;4.72;80.50;100040.28;4949870;28;20047;-80
2022/02/14 07:16:10;;;;;;;11.80;3.78;;;5.60;99.90;;;4.99;79.43;100035.06;4917412;28;20027;-80
2022/02/14 07:18:37;;;;;;;12.27;3.58;;;5.90;99.90;;;6.00;77.05;100035.72;4914668;28;20058;-80
2022/02/14 07:21:04;;;;;;;8.50;3.45;;;6.20;99.90;;;7.04;74.08;100040.25;4923154;28;20117;-80
2022/02/14 07:23:30;;;;;;;7.43;3.33;;;6.60;99.90;;;7.55;71.09;100044.97;4949564;28;20076;-80
2022/02/14 07:26:01;;;;;;;10.98;3.80;;;6.90;99.90;;;7.14;70.28;100045.03;4942706;28;20037;-81
2022/02/14 07:28:27;;;;;;;11.20;3.92;;;7.10;99.90;;;7.44;69.31;100043.75;4922417;28;20041;-80
2022/02/14 07:30:53;;;;;;;9.18;4.35;;;7.40;99.90;;;8.52;67.15;100055.38;4948213;28;20040;-80
2022/02/14 07:33:20;;;;;;;14.52;3.63;;;7.80;99.90;;;9.63;63.91;100072.47;4922103;28;20048;-80
2022/02/14 07:35:54;;;;;;;10.68;3.83;;;8.30;99.90;;;10.30;60.76;99982.91;4922033;28;20604;-80
2022/02/14 07:38:20;;;;;;;11.73;3.70;;;8.90;99.90;;;11.20;58.69;100037.31;4939485;28;20037;-80
2022/02/14 07:40:47;;;;;;;10.40;3.70;;;9.40;99.90;;;11.48;56.66;100040.91;4941999;28;20029;-80
2022/02/14 07:43:13;;;;;;;9.07;3.50;;;9.70;99.90;;;10.96;56.96;100049.31;4909076;28;20034;-80
2022/02/14 07:45:45;;;;;;;10.18;3.50;;;9.90;99.90;;;10.24;57.81;100039.34;4923638;28;20587;-81
2022/02/14 07:48:11;;;;;;;9.23;3.42;;;9.70;99.90;;;9.13;60.79;100036.53;4898501;28;20081;-79
2022/02/14 07:50:37;;;;;;;15.38;3.10;;;9.50;99.90;;;8.57;62.36;100027.13;4934232;28;20025;-80
2022/02/14 07:53:03;;;;;;;6.45;3.10;;;9.30;99.90;;;8.41;63.51;100027.03;4933643;28;20100;-80
2022/02/14 07:55:29;;;;;;;13.30;3.33;;;9.20;99.90;;;8.96;62.93;100020.78;4888041;28;20135;-80
2022/02/14 07:58:00;;;;;;;7.85;3.60;;;9.20;99.90;;;9.50;61.49;100031.97;4929623;28;20028;-80
2022/02/14 08:00:27;;;;;;;12.15;3.78;;;9.50;99.90;;;10.28;59.91;100024.22;4926585;28;20034;-80
2022/02/14 08:02:52;;;;;;;8.90;3.25;;;9.80;99.90;;;11.44;56.73;100042.03;4971093;28;20034;-80
2022/02/14 08:05:18;;;;;;;10.88;3.30;;;10.40;99.90;;;11.98;54.74;100036.94;4925059;28;20095;-80
2022/02/14 08:07:44;;;;;;;10.27;3.38;;;10.90;99.90;;;11.78;53.74;100035.53;4910948;28;20025;-80
2022/02/14 08:10:10;;;;;;;6.85;3.15;;;11.00;99.90;;;10.78;55.96;100038.94;4922546;28;20029;-81
2022/02/14 08:12:41;;;;;;;10.02;3.30;;;10.90;99.90;;;10.07;58.38;100042.06;4964375;28;20079;-81
2022/02/14 08:15:08;;;;;;;8.20;3.50;;;10.70;99.90;;;9.74;59.37;100032.47;4938928;28;20124;-80
2022/02/14 08:17:34;;;;;;;9.88;3.50;;;10.70;99.90;;;10.79;57.75;100035.34;4946524;28;20052;-80
2022/02/14 08:20:00;;;;;;;10.73;3.40;;;10.90;99.90;;;10.72;57.09;100022.63;4955883;28;20033;-80
2022/02/14 08:22:32;;;;;;;9.27;3.05;;;11.00;99.90;;;10.52;57.24;100026.41;4935787;28;20552;-81
2022/02/14 08:24:58;;;;;;;6.95;2.83;;;11.00;99.90;;;10.18;58.27;100020.41;4913545;28;20227;-80
2022/02/14 08:27:24;;;;;;;8.30;3.05;;;10.90;99.90;;;9.78;58.62;100015.59;4908296;28;20037;-81
2022/02/14 08:29:52;;;;;;;11.02;3.08;;;10.70;99.90;;;9.73;59.41;100022.00;4949576;28;20038;-79
2022/02/14 08:32:18;;;;;;;7.53;3.28;;;10.50;99.90;;;9.57;59.63;100025.47;4951248;28;20032;-80
2022/02/14 08:34:52;;;;;;;6.28;3.15;;;10.50;99.90;;;9.54;60.39;100015.09;4955636;28;20064;-81
2022/02/14 08:37:18;;;;;;;9.93;3.08;;;10.40;99.90;;;9.32;60.30;100011.94;4954441;28;20033;-80
2022/02/14 08:39:43;;;;;;;9.60;3.25;;;10.30;99.90;;;9.18;60.48;100010.88;4941536;28;20064;-80
2022/02/14 08:42:09;;;;;;;8.55;3.05;;;10.20;99.90;;;9.08;61.52;100006.19;4900753;28;20033;-80
2022/02/14 08:44:43;;;;;;;7.07;2.85;;;10.10;99.90;;;8.99;61.17;100007.53;4900905;28;20028;-80
2022/02/14 08:47:09;;;;;;;10.77;3.33;;;10.00;99.90;;;8.98;62.22;99997.94;4951501;28;20025;-80
2022/02/14 08:49:35;;;;;;;9.77;2.88;;;10.00;99.90;;;8.99;61.26;100000.47;4914148;28;20080;-80
2022/02/14 08:52:02;;;;;;;9.85;3.08;;;9.90;99.90;;;8.97;62.42;100009.38;4930336;28;20051;-80
2022/02/14 08:54:33;;;;;;;8.15;2.67;;;9.90;99.90;;;8.99;62.13;99989.13;4919985;28;20045;-80
2022/02/14 08:56:59;;;;;;;13.30;2.90;;;10.00;99.90;;;8.99;61.85;99995.22;4930880;28;20099;-80
2022/02/14 08:59:25;;;;;;;10.65;2.78;;;10.10;99.90;;;9.29;61.94;99985.81;4918042;28;20124;-80
2022/02/14 09:01:51;;;;;;;10.93;3.03;;;10.30;99.90;;;9.66;60.93;99992.59;4944787;28;20029;-80
2022/02/14 09:04:17;;;;;;;8.02;2.90;;;10.70;99.90;;;10.36;59.09;99995.69;4938449;28;20028;-79
2022/02/14 09:06:50;;;;;;;8.30;3.28;;;11.20;99.90;;;11.23;57.08;100017.81;4928852;28;20029;-81
2022/02/14 09:09:16;;;;;;;7.28;2.63;;;11.90;99.90;;;11.76;55.94;100029.50;4956689;28;20068;-80
2022/02/14 09:11:42;;;;;;;9.38;3.00;;;12.60;99.90;;;12.30;54.09;100021.66;4922667;28;20513;-80
2022/02/14 09:14:08;;;;;;;9.20;3.22;;;13.10;99.90;;;12.64;53.36;100005.41;4940137;28;20108;-80
2022/02/14 09:16:46;;;;;;;8.52;2.72;;;13.10;99.90;;;12.86;52.55;100029.44;4915739;28;20561;-80
2022/02/14 09:19:12;;;;;;;10.07;2.88;;;13.70;99.90;;;12.89;53.15;100028.38;4934374;28;20494;-79
2022/02/14 09:21:42;;;;;;;7.07;2.67;;;13.70;99.90;;;12.77;52.71;100032.72;4923235;28;20037;-80
2022/02/14 09:24:12;;;;;;;8.52;2.80;;;13.80;99.90;;;12.93;52.67;100030.72;4950997;28;20493;-80
2022/02/14 09:26:43;;;;;;;7.30;2.90;;;13.90;99.90;;;13.04;52.34;100029.16;4960677;28;23231;-80
2022/02/14 09:29:13;;;;;;;7.32;2.70;;;13.90;99.90;;;13.04;51.94;100019.41;5011560;28;20397;-80
2022/02/14 09:31:40;;;;;;;14.27;3.50;;;13.90;99.90;;;13.05;52.51;100025.56;4943643;28;20021;-79
2022/02/14 09:34:07;;;;;;;8.10;2.97;;;13.80;99.90;;;12.91;52.62;100019.44;4941470;28;20030;-80
2022/02/14 09:36:41;;;;;;;7.30;2.78;;;13.70;99.90;;;12.75;52.55;100039.03;4929606;28;20034;-80
2022/02/14 09:39:08;;;;;;;8.43;2.75;;;13.50;99.90;;;12.52;52.15;100042.22;4951667;28;20042;-80
2022/02/14 09:41:47;;;;;;;5.65;2.72;;;13.30;99.90;;;12.28;53.90;100033.28;4920264;28;20030;-80
2022/02/14 09:44:13;;;;;;;7.80;2.90;;;13.10;99.90;;;12.07;54.79;100027.59;4912941;28;20022;-79
2022/02/14 09:46:42;;;;;;;7.15;2.72;;;12.90;99.90;;;11.64;56.04;100019.72;4918198;28;20396;-79
2022/02/14 09:49:16;;;;;;;6.85;3.00;;;12.70;99.90;;;11.25;55.82;100022.09;4944449;28;20108;-80
2022/02/14 09:51:42;;;;;;;13.23;3.03;;;12.60;99.90;;;11.11;57.22;100034.41;4896128;28;20085;-79
2022/02/14 09:54:08;;;;;;;9.82;2.65;;;12.40;99.90;;;10.69;57.74;100028.94;4932432;28;20528;-79
2022/02/14 09:56:36;;;;;;;14.20;2.88;;;12.20;99.90;;;10.45;58.58;100021.53;4999613;28;20567;-79
2022/02/14 09:59:06;;;;;;;9.75;2.85;;;11.90;99.90;;;10.39;59.91;100021.88;4940387;28;20029;-81
2022/02/14 10:01:33;;;;;;;14.43;3.22;;;11.70;99.90;;;10.00;59.22;100019.63;4943061;28;20065;-77
2022/02/14 10:04:01;;;;;;;6.25;2.75;;;11.50;99.90;;;9.93;60.01;100008.59;4920393;28;20572;-78
2022/02/14 10:06:33;;;;;;;5.82;2.40;;;11.30;99.90;;;9.68;60.45;99997.78;4940013;28;20101;-80
2022/02/14 10:09:36;;;;;;;7.82;3.15;;;11.10;99.90;;;9.54;59.69;99991.44;4960509;28;20029;-79
2022/02/14 10:12:10;;;;;;;8.25;2.60;;;11.00;99.90;;;9.60;60.61;99991.13;4869399;28;20482;-80
2022/02/14 10:14:38;;;;;;;5.90;2.40;;;11.00;99.90;;;9.63;61.32;99983.09;4943770;28;20418;-80
2022/02/14 10:17:13;;;;;;;14.38;2.78;;;10.90;99.90;;;9.52;61.45;99982.81;4940389;28;20044;-80
2022/02/14 10:19:55;;;;;;;9.27;2.70;;;10.80;99.90;;;9.61;61.63;99978.81;4932275;28;20121;-79
2022/02/14 10:22:22;;;;;;;7.18;2.70;;;10.90;99.90;;;9.70;61.25;99978.34;4937916;28;20055;-79